TAF Text Data
IDs:
Format:
Raw Decoded Include METAR

Data at: 0332 UTC 19 Oct 2021

KHOU 182320Z 1900/1924 12005KT P6SM FEW250
  FM191600 14008KT P6SM SCT035